Time;durP1;ratioP1;P1;durP2;ratioP2;P2;SDS_P1;SDS_P2;PMS_P1;PMS_P2;Temp;Humidity;BMP_temperature;BMP_pressure;BME280_temperature;BME280_humidity;BME280_pressure;Samples;Min_cycle;Max_cycle;Signal;HPM_P1;HPM_P2
2023/08/15 00:01:15;;;;;;;9.25;5.53;;;22.10;99.90;;;;;;5011730;28;20033;-45
2023/08/15 00:03:40;;;;;;;10.73;5.30;;;22.00;99.90;;;;;;5011298;28;20487;-46
2023/08/15 00:06:06;;;;;;;8.45;5.60;;;22.00;99.90;;;;;;5011301;28;20025;-45
2023/08/15 00:08:31;;;;;;;7.47;5.75;;;22.00;99.90;;;;;;5011407;28;20105;-45
2023/08/15 00:10:57;;;;;;;9.93;5.45;;;22.00;99.90;;;;;;5011506;28;20022;-45
2023/08/15 00:13:22;;;;;;;9.82;6.18;;;22.00;99.90;;;;;;5011272;28;20021;-45
2023/08/15 00:15:48;;;;;;;9.25;5.65;;;22.00;99.90;;;;;;4993003;28;20025;-47
2023/08/15 00:18:13;;;;;;;8.32;5.57;;;21.90;99.90;;;;;;5011401;28;20018;-45
2023/08/15 00:20:39;;;;;;;7.88;5.25;;;21.90;99.90;;;;;;5010740;28;20509;-46
2023/08/15 00:23:04;;;;;;;13.00;5.85;;;21.90;99.90;;;;;;5011049;28;20038;-45
2023/08/15 00:25:30;;;;;;;8.93;5.65;;;21.90;99.90;;;;;;5010623;28;20336;-45
2023/08/15 00:27:56;;;;;;;6.13;4.90;;;21.80;99.90;;;;;;4993428;28;20041;-47
2023/08/15 00:30:21;;;;;;;9.80;5.18;;;21.80;99.90;;;;;;5010972;28;20038;-46
2023/08/15 00:32:47;;;;;;;8.05;5.00;;;21.80;99.90;;;;;;4993300;28;20113;-46
2023/08/15 00:35:12;;;;;;;9.23;5.13;;;21.80;99.90;;;;;;5010672;28;20048;-45
2023/08/15 00:37:38;;;;;;;9.65;5.03;;;21.70;99.90;;;;;;4993289;28;20508;-44
2023/08/15 00:40:04;;;;;;;9.82;5.18;;;21.70;99.90;;;;;;5011351;28;20022;-44
2023/08/15 00:42:30;;;;;;;8.65;5.10;;;21.60;99.90;;;;;;5010619;28;20030;-45
2023/08/15 00:44:56;;;;;;;8.18;5.80;;;21.60;99.90;;;;;;5010403;28;20044;-45
2023/08/15 00:47:22;;;;;;;8.38;5.20;;;21.60;99.90;;;;;;5010767;28;20034;-45
2023/08/15 00:49:49;;;;;;;8.68;5.45;;;21.50;99.90;;;;;;5010823;28;20018;-45
2023/08/15 00:52:16;;;;;;;8.05;5.20;;;21.50;99.90;;;;;;5010697;28;20018;-47
2023/08/15 00:54:45;;;;;;;11.90;5.35;;;21.50;99.90;;;;;;5010257;28;20459;-46
2023/08/15 00:57:11;;;;;;;8.73;4.93;;;21.50;99.90;;;;;;5010643;28;20025;-47
2023/08/15 00:59:37;;;;;;;8.80;5.20;;;21.40;99.90;;;;;;5010616;28;20040;-46
2023/08/15 01:02:03;;;;;;;6.40;4.95;;;21.40;99.90;;;;;;5010692;28;20052;-47
2023/08/15 01:04:31;;;;;;;12.60;5.43;;;21.40;99.90;;;;;;5009937;28;20033;-47
2023/08/15 01:06:56;;;;;;;11.10;5.53;;;21.40;99.90;;;;;;4992974;28;20028;-49
2023/08/15 01:09:22;;;;;;;7.13;5.25;;;21.30;99.90;;;;;;5010509;28;20477;-47
2023/08/15 01:12:08;;;;;;;7.05;4.47;;;21.30;99.90;;;;;;5010500;28;20036;-47
2023/08/15 01:14:41;;;;;;;7.68;5.07;;;21.30;99.90;;;;;;5009907;28;20409;-47
2023/08/15 01:17:10;;;;;;;6.43;5.28;;;21.20;99.90;;;;;;5010542;28;20014;-47
2023/08/15 01:19:44;;;;;;;8.07;5.38;;;21.20;99.90;;;;;;5010405;28;20022;-46
2023/08/15 01:22:31;;;;;;;7.18;5.47;;;21.20;99.90;;;;;;4992770;28;20030;-49
2023/08/15 01:24:57;;;;;;;11.15;4.95;;;21.10;99.90;;;;;;4992195;28;20072;-48
2023/08/15 01:27:23;;;;;;;8.27;4.32;;;21.10;99.90;;;;;;5010274;28;20547;-47
2023/08/15 01:29:49;;;;;;;8.18;5.55;;;21.00;99.90;;;;;;5010399;28;20030;-50
2023/08/15 01:32:23;;;;;;;7.50;4.88;;;21.00;99.90;;;;;;5012323;28;20559;-46
2023/08/15 01:35:15;;;;;;;10.55;5.60;;;20.90;99.90;;;;;;5014092;28;20025;-47
2023/08/15 01:37:44;;;;;;;10.38;5.10;;;20.90;99.90;;;;;;5014255;28;20020;-49
2023/08/15 01:40:14;;;;;;;8.77;5.38;;;20.80;99.90;;;;;;4996591;28;20572;-47
2023/08/15 01:42:40;;;;;;;11.07;5.38;;;20.80;99.90;;;;;;5013875;28;20404;-48
2023/08/15 01:45:08;;;;;;;8.35;5.10;;;20.80;99.90;;;;;;5013853;28;20444;-47
2023/08/15 01:47:34;;;;;;;6.32;4.78;;;20.80;99.90;;;;;;5013978;28;20018;-47
2023/08/15 01:49:59;;;;;;;6.53;5.35;;;20.70;99.90;;;;;;4996455;28;20018;-45
2023/08/15 01:52:25;;;;;;;7.25;4.88;;;20.70;99.90;;;;;;5013965;28;20018;-44
2023/08/15 01:54:50;;;;;;;7.88;4.90;;;20.60;99.90;;;;;;5013531;28;20033;-47
2023/08/15 01:57:16;;;;;;;9.55;5.47;;;20.60;99.90;;;;;;5013821;28;20389;-46
2023/08/15 01:59:43;;;;;;;7.70;5.38;;;20.50;99.90;;;;;;5013801;28;20018;-50
2023/08/15 02:02:12;;;;;;;7.65;5.00;;;20.50;99.90;;;;;;5013790;28;20014;-46
2023/08/15 02:04:37;;;;;;;8.38;5.45;;;20.40;99.90;;;;;;5013396;28;20392;-46
2023/08/15 02:07:03;;;;;;;6.35;5.72;;;20.40;99.90;;;;;;5013778;28;20018;-47
2023/08/15 02:09:29;;;;;;;8.60;5.25;;;20.40;99.90;;;;;;5013605;28;20029;-47
2023/08/15 02:11:54;;;;;;;8.88;5.43;;;20.40;99.90;;;;;;5013602;28;20026;-46
2023/08/15 02:14:20;;;;;;;13.82;5.95;;;20.40;99.90;;;;;;5013336;28;20022;-45
2023/08/15 02:16:45;;;;;;;9.70;5.85;;;20.40;99.90;;;;;;5013341;28;20021;-46
2023/08/15 02:19:12;;;;;;;5.97;4.93;;;20.40;99.90;;;;;;5013799;28;20076;-47
2023/08/15 02:21:37;;;;;;;9.88;5.70;;;20.40;99.90;;;;;;4995822;28;20032;-49
2023/08/15 02:24:03;;;;;;;7.80;5.15;;;20.40;99.90;;;;;;5013120;28;20108;-46
2023/08/15 02:26:29;;;;;;;7.68;5.43;;;20.50;99.90;;;;;;5012970;28;20459;-45
2023/08/15 02:28:54;;;;;;;9.32;6.13;;;20.40;99.90;;;;;;5013428;28;20006;-45
2023/08/15 02:31:21;;;;;;;10.00;5.85;;;20.40;99.90;;;;;;5013356;28;20040;-46
2023/08/15 02:33:47;;;;;;;8.50;5.50;;;20.40;99.90;;;;;;5005016;28;20057;-46
2023/08/15 02:36:12;;;;;;;7.65;5.50;;;20.40;99.90;;;;;;5013029;28;20046;-45
2023/08/15 02:38:38;;;;;;;7.90;4.95;;;20.40;99.90;;;;;;5013052;28;20030;-47
2023/08/15 02:41:03;;;;;;;7.43;5.40;;;20.40;99.90;;;;;;5012995;28;20052;-46
2023/08/15 02:43:30;;;;;;;5.38;4.55;;;20.40;99.90;;;;;;5011863;28;20084;-47
2023/08/15 02:45:55;;;;;;;7.70;5.63;;;20.40;99.90;;;;;;5012742;28;20029;-46
2023/08/15 02:48:21;;;;;;;6.07;5.03;;;20.40;99.90;;;;;;4995393;28;20026;-46
2023/08/15 02:50:46;;;;;;;6.97;5.10;;;20.40;99.90;;;;;;5012884;28;20026;-47
2023/08/15 02:53:12;;;;;;;5.72;5.13;;;20.40;99.90;;;;;;5012806;28;20030;-47
2023/08/15 02:55:37;;;;;;;6.03;4.75;;;20.30;99.90;;;;;;5012362;28;20300;-47
2023/08/15 02:58:03;;;;;;;8.05;5.25;;;20.20;99.90;;;;;;4995287;28;20156;-46
2023/08/15 03:00:28;;;;;;;5.78;5.13;;;20.10;99.90;;;;;;4995178;28;20103;-46
2023/08/15 03:02:54;;;;;;;6.55;5.47;;;20.00;99.90;;;;;;5012606;28;20550;-47
2023/08/15 03:05:19;;;;;;;7.47;4.95;;;19.90;99.90;;;;;;5012238;28;20022;-46
2023/08/15 03:07:45;;;;;;;5.60;4.43;;;19.90;99.90;;;;;;5013058;28;20025;-47
2023/08/15 03:10:10;;;;;;;8.02;4.90;;;19.80;99.90;;;;;;5012523;28;20048;-47
2023/08/15 03:12:36;;;;;;;6.25;5.10;;;19.80;99.90;;;;;;4994859;28;20486;-46
2023/08/15 03:15:02;;;;;;;8.05;5.57;;;19.80;99.90;;;;;;5012461;28;20024;-46
2023/08/15 03:17:27;;;;;;;8.18;5.32;;;19.80;99.90;;;;;;4995006;28;20113;-48
2023/08/15 03:19:54;;;;;;;8.80;5.57;;;19.70;99.90;;;;;;5012593;28;20448;-47
2023/08/15 03:22:20;;;;;;;11.65;5.72;;;19.70;99.90;;;;;;5012467;28;20386;-46
2023/08/15 03:24:45;;;;;;;10.88;4.90;;;19.80;99.90;;;;;;5011715;28;20028;-46
2023/08/15 03:27:11;;;;;;;6.93;4.85;;;19.80;99.90;;;;;;5012242;28;20038;-46
2023/08/15 03:29:36;;;;;;;5.47;4.90;;;19.80;99.90;;;;;;5012173;28;20026;-47
2023/08/15 03:32:02;;;;;;;7.50;5.43;;;19.80;99.90;;;;;;5012047;28;20038;-46
2023/08/15 03:34:28;;;;;;;6.05;5.13;;;19.80;99.90;;;;;;5011617;28;20432;-46
2023/08/15 03:36:53;;;;;;;9.95;5.50;;;19.90;99.90;;;;;;5012092;28;20021;-47
2023/08/15 03:39:19;;;;;;;6.40;4.78;;;19.90;99.90;;;;;;5010568;28;20033;-47
2023/08/15 03:41:45;;;;;;;9.43;5.07;;;19.90;99.90;;;;;;5010944;28;20068;-47
2023/08/15 03:44:10;;;;;;;9.48;5.35;;;20.00;99.90;;;;;;5011616;28;20057;-46
2023/08/15 03:46:36;;;;;;;8.18;4.85;;;20.10;99.90;;;;;;5011656;28;20105;-47
2023/08/15 03:49:02;;;;;;;8.00;4.72;;;20.10;99.90;;;;;;4994448;28;20026;-48
2023/08/15 03:51:28;;;;;;;6.78;4.68;;;20.10;99.90;;;;;;5011814;28;20021;-46
2023/08/15 03:53:54;;;;;;;9.70;5.40;;;20.20;99.90;;;;;;5011403;28;20026;-47
2023/08/15 03:56:19;;;;;;;8.15;5.30;;;20.20;99.90;;;;;;5010399;28;20060;-48
2023/08/15 03:58:45;;;;;;;9.25;4.60;;;20.20;99.90;;;;;;5011648;28;20026;-46
2023/08/15 04:01:10;;;;;;;7.07;4.43;;;20.20;99.90;;;;;;5011639;28;20109;-45
2023/08/15 04:03:36;;;;;;;8.10;4.47;;;20.20;99.90;;;;;;5011268;28;20329;-47
2023/08/15 04:06:01;;;;;;;7.47;4.68;;;20.30;99.90;;;;;;5011428;28;20385;-45
2023/08/15 04:08:27;;;;;;;7.13;4.80;;;20.30;99.90;;;;;;5011405;28;20084;-46
2023/08/15 04:10:52;;;;;;;6.15;4.38;;;20.30;99.90;;;;;;5011356;28;20141;-46
2023/08/15 04:13:18;;;;;;;8.98;4.43;;;20.30;99.90;;;;;;5011493;28;20212;-46
2023/08/15 04:15:44;;;;;;;6.57;4.28;;;20.30;99.90;;;;;;4993272;28;20289;-46
2023/08/15 04:18:09;;;;;;;5.43;4.53;;;20.30;99.90;;;;;;4993778;28;20193;-46
2023/08/15 04:20:37;;;;;;;10.48;4.93;;;20.30;99.90;;;;;;5011331;28;20049;-47
2023/08/15 04:23:03;;;;;;;6.00;4.53;;;20.30;99.90;;;;;;5011109;28;20068;-46
2023/08/15 04:25:29;;;;;;;7.15;4.30;;;20.40;99.90;;;;;;4993329;28;20167;-46
2023/08/15 04:27:55;;;;;;;10.07;5.18;;;20.40;99.90;;;;;;5011485;28;20014;-47
2023/08/15 04:30:20;;;;;;;6.78;5.05;;;20.50;99.90;;;;;;5011171;28;20121;-46
2023/08/15 04:32:46;;;;;;;6.15;4.65;;;20.50;99.90;;;;;;5010954;28;20382;-46
2023/08/15 04:35:13;;;;;;;9.00;4.72;;;20.50;99.90;;;;;;5010684;28;20084;-47
2023/08/15 04:37:39;;;;;;;7.18;4.40;;;20.50;99.90;;;;;;5010862;28;20034;-47
2023/08/15 04:40:05;;;;;;;15.25;4.75;;;20.50;99.90;;;;;;5010917;28;20049;-48
2023/08/15 04:42:30;;;;;;;6.30;4.50;;;20.60;99.90;;;;;;5010725;28;20079;-46
2023/08/15 04:44:56;;;;;;;9.90;5.65;;;20.60;99.90;;;;;;5010907;28;20021;-46
2023/08/15 04:47:22;;;;;;;7.55;4.72;;;20.60;99.90;;;;;;5011029;28;20025;-46
2023/08/15 04:49:48;;;;;;;5.07;4.00;;;20.50;99.90;;;;;;5010823;28;20026;-46
2023/08/15 04:52:16;;;;;;;6.22;4.03;;;20.60;99.90;;;;;;5010657;28;20018;-47
2023/08/15 04:54:42;;;;;;;7.43;4.88;;;20.60;99.90;;;;;;5010177;28;20034;-49
2023/08/15 04:57:07;;;;;;;8.70;5.35;;;20.60;99.90;;;;;;5010773;28;20112;-46
2023/08/15 04:59:33;;;;;;;7.82;4.25;;;20.60;99.90;;;;;;5018849;28;20396;-46
2023/08/15 05:01:58;;;;;;;7.10;3.85;;;20.70;99.90;;;;;;5010717;28;20515;-46
2023/08/15 05:04:24;;;;;;;6.18;3.70;;;20.70;99.90;;;;;;5010398;28;20304;-45
2023/08/15 05:06:49;;;;;;;6.60;4.50;;;20.80;99.90;;;;;;5010278;28;20018;-46
2023/08/15 05:09:15;;;;;;;11.30;5.50;;;20.90;99.90;;;;;;5010478;28;20014;-46
2023/08/15 05:11:42;;;;;;;7.18;3.83;;;21.00;99.90;;;;;;5010583;28;20022;-47
2023/08/15 05:14:08;;;;;;;9.45;4.90;;;21.00;99.90;;;;;;5010267;28;20053;-48
2023/08/15 05:16:33;;;;;;;6.97;4.20;;;21.10;99.90;;;;;;5010007;28;20547;-47
2023/08/15 05:18:59;;;;;;;7.47;4.10;;;21.10;99.90;;;;;;5011002;28;20032;-46
2023/08/15 05:21:25;;;;;;;8.48;4.20;;;21.10;99.90;;;;;;5010602;28;20113;-47
2023/08/15 05:23:51;;;;;;;7.05;4.18;;;21.30;99.90;;;;;;5010277;28;20021;-47
2023/08/15 05:26:16;;;;;;;7.10;4.43;;;21.40;99.90;;;;;;5010276;28;20061;-46
2023/08/15 05:28:42;;;;;;;7.30;4.30;;;21.50;99.90;;;;;;5010433;28;20101;-47
2023/08/15 05:31:07;;;;;;;6.32;4.20;;;21.50;99.90;;;;;;5010239;28;20025;-48
2023/08/15 05:33:33;;;;;;;6.05;3.88;;;21.70;99.90;;;;;;5009955;28;20047;-46
2023/08/15 05:35:59;;;;;;;6.20;3.80;;;21.80;99.90;;;;;;5010032;28;20109;-48
2023/08/15 05:38:24;;;;;;;5.75;3.80;;;21.90;99.90;;;;;;4992520;28;20034;-47
2023/08/15 05:40:50;;;;;;;5.95;3.47;;;22.00;99.90;;;;;;5010330;28;20033;-47
2023/08/15 05:43:15;;;;;;;9.50;4.32;;;22.10;99.90;;;;;;5010077;28;20389;-46
2023/08/15 05:45:45;;;;;;;5.25;3.85;;;22.20;99.90;;;;;;4992226;28;20065;-46
2023/08/15 05:48:10;;;;;;;6.95;3.67;;;22.20;99.90;;;;;;5010365;28;20049;-47
2023/08/15 05:50:37;;;;;;;5.20;3.58;;;22.20;99.90;;;;;;5010007;28;20065;-47
2023/08/15 05:53:02;;;;;;;8.15;3.92;;;22.30;99.90;;;;;;5010017;28;20022;-47
2023/08/15 05:55:28;;;;;;;7.50;4.28;;;22.30;99.90;;;;;;5009878;28;20026;-47
2023/08/15 05:57:53;;;;;;;5.85;3.90;;;22.40;99.90;;;;;;5010256;28;20117;-46
2023/08/15 06:00:19;;;;;;;8.18;4.57;;;22.50;99.90;;;;;;5010022;28;20033;-48
2023/08/15 06:02:44;;;;;;;6.18;4.18;;;22.60;99.90;;;;;;5009829;28;20049;-48
2023/08/15 06:05:10;;;;;;;6.28;3.85;;;22.70;99.90;;;;;;5009623;28;20018;-46
2023/08/15 06:07:35;;;;;;;9.52;4.80;;;22.70;99.90;;;;;;4992520;28;20469;-47
2023/08/15 06:10:01;;;;;;;5.15;3.92;;;22.80;99.90;;;;;;5010009;28;20049;-48
2023/08/15 06:12:27;;;;;;;11.23;4.18;;;22.90;99.90;;;;;;5009944;28;20021;-46
2023/08/15 06:14:52;;;;;;;5.10;3.80;;;22.90;99.90;;;;;;5009433;28;20026;-46
2023/08/15 06:17:18;;;;;;;6.43;3.55;;;22.90;99.90;;;;;;5009942;28;20030;-47
2023/08/15 06:19:44;;;;;;;4.85;3.55;;;23.00;99.90;;;;;;4994832;28;20025;-46
2023/08/15 06:22:09;;;;;;;5.00;3.90;;;23.00;99.90;;;;;;5013335;28;20109;-47
2023/08/15 06:24:35;;;;;;;7.60;3.78;;;23.10;99.90;;;;;;5012805;28;20026;-47
2023/08/15 06:27:00;;;;;;;10.00;4.22;;;23.10;99.90;;;;;;5013358;28;20481;-48
2023/08/15 06:29:26;;;;;;;6.35;3.83;;;23.20;99.90;;;;;;5013441;28;20076;-49
2023/08/15 06:31:53;;;;;;;8.65;4.10;;;23.30;99.90;;;;;;5013522;28;20757;-50
2023/08/15 06:34:18;;;;;;;7.00;4.00;;;23.50;99.90;;;;;;5013195;28;20026;-47
2023/08/15 06:36:45;;;;;;;8.63;4.60;;;23.70;99.90;;;;;;5012885;28;20058;-47
2023/08/15 06:39:11;;;;;;;5.82;4.43;;;23.70;99.90;;;;;;5013337;28;20052;-46
2023/08/15 06:41:37;;;;;;;5.80;3.67;;;23.80;99.90;;;;;;5013066;28;20026;-46
2023/08/15 06:44:03;;;;;;;6.10;3.65;;;23.80;99.90;;;;;;5012668;28;20026;-46
2023/08/15 06:46:28;;;;;;;7.47;4.30;;;23.90;99.90;;;;;;4995164;28;20049;-46
2023/08/15 06:48:54;;;;;;;6.57;4.07;;;24.00;99.90;;;;;;5012860;28;20029;-46
2023/08/15 06:51:19;;;;;;;5.78;3.70;;;24.20;99.90;;;;;;5012920;28;20384;-46
2023/08/15 06:53:45;;;;;;;7.70;5.03;;;24.30;99.90;;;;;;4994889;28;20418;-46
2023/08/15 06:56:11;;;;;;;6.15;4.00;;;24.30;99.90;;;;;;5012577;28;20505;-46
2023/08/15 06:58:37;;;;;;;8.40;4.88;;;24.50;99.90;;;;;;5012695;28;20034;-47
2023/08/15 07:01:03;;;;;;;9.13;5.03;;;24.50;99.90;;;;;;5012779;28;20464;-49
2023/08/15 07:03:29;;;;;;;7.25;4.20;;;24.60;99.90;;;;;;5012200;28;20057;-46
2023/08/15 07:05:54;;;;;;;9.90;4.38;;;24.60;99.90;;;;;;5012431;28;20033;-48
2023/08/15 07:08:20;;;;;;;9.60;4.20;;;24.60;99.90;;;;;;5012725;28;20022;-48
2023/08/15 07:10:45;;;;;;;5.50;3.97;;;24.50;99.90;;;;;;5012442;28;20060;-47
2023/08/15 07:13:11;;;;;;;5.90;4.20;;;24.40;99.90;;;;;;5012356;28;20025;-49
2023/08/15 07:15:37;;;;;;;6.53;3.92;;;24.30;99.90;;;;;;5011946;28;20025;-46
2023/08/15 07:18:03;;;;;;;7.00;3.83;;;24.20;99.90;;;;;;5012318;28;20041;-47
2023/08/15 07:20:28;;;;;;;6.75;4.43;;;24.00;99.90;;;;;;5012240;28;20025;-47
2023/08/15 07:22:55;;;;;;;6.50;4.43;;;23.80;99.90;;;;;;5012042;28;20076;-47
2023/08/15 07:25:20;;;;;;;9.98;5.13;;;23.70;99.90;;;;;;5012284;28;20022;-47
2023/08/15 07:27:46;;;;;;;10.52;5.85;;;23.60;99.90;;;;;;5012392;28;20021;-49
2023/08/15 07:30:12;;;;;;;9.90;5.72;;;23.30;99.90;;;;;;5011965;28;20022;-50
2023/08/15 07:32:38;;;;;;;9.68;5.68;;;23.00;99.90;;;;;;5012325;28;20029;-48
2023/08/15 07:35:05;;;;;;;12.15;5.93;;;22.80;99.90;;;;;;5011618;28;20026;-46
2023/08/15 07:37:31;;;;;;;10.60;5.95;;;22.50;99.90;;;;;;5012006;28;20536;-48
2023/08/15 07:40:08;;;;;;;11.02;6.10;;;22.30;99.90;;;;;;5011987;28;20034;-49
2023/08/15 07:42:34;;;;;;;9.52;6.13;;;22.10;99.90;;;;;;5011921;28;20026;-50
2023/08/15 07:44:59;;;;;;;8.48;6.10;;;22.00;99.90;;;;;;5011307;28;20029;-46
2023/08/15 07:47:25;;;;;;;11.35;6.03;;;21.90;99.90;;;;;;5011794;28;20037;-47
2023/08/15 07:50:14;;;;;;;8.07;6.70;;;21.80;99.90;;;;;;5011774;28;20108;-46
2023/08/15 07:52:41;;;;;;;15.40;7.03;;;21.60;99.90;;;;;;5011856;28;20100;-46
2023/08/15 07:55:07;;;;;;;12.07;7.40;;;21.50;99.90;;;;;;4993742;28;20384;-48
2023/08/15 07:57:33;;;;;;;9.75;6.95;;;21.40;99.90;;;;;;5011671;28;20018;-47
2023/08/15 07:59:58;;;;;;;14.20;7.47;;;21.30;99.90;;;;;;4993818;28;20025;-47
2023/08/15 08:02:24;;;;;;;12.50;7.07;;;21.20;99.90;;;;;;5011368;28;20033;-47
2023/08/15 08:04:50;;;;;;;9.68;6.20;;;21.20;99.90;;;;;;5010873;28;20534;-47
2023/08/15 08:07:15;;;;;;;10.00;7.72;;;21.10;99.90;;;;;;5011456;28;20018;-45
2023/08/15 08:09:41;;;;;;;11.35;7.10;;;21.10;99.90;;;;;;5011607;28;20022;-45
2023/08/15 08:12:09;;;;;;;9.80;6.95;;;21.20;99.90;;;;;;5011462;28;20025;-46
2023/08/15 08:14:34;;;;;;;9.05;6.70;;;21.30;99.90;;;;;;5010798;28;20030;-45
2023/08/15 08:17:00;;;;;;;9.68;6.18;;;21.50;99.90;;;;;;5011187;28;20491;-45
2023/08/15 08:19:25;;;;;;;7.45;5.03;;;21.90;99.90;;;;;;5011556;28;20032;-45
2023/08/15 08:21:51;;;;;;;6.70;4.97;;;22.20;99.90;;;;;;5011155;28;20113;-45
2023/08/15 08:24:16;;;;;;;5.47;3.88;;;23.50;99.90;;;;;;5010887;28;20029;-45
2023/08/15 08:26:42;;;;;;;6.20;4.00;;;24.70;99.90;;;;;;5010776;28;20063;-45
2023/08/15 08:29:08;;;;;;;4.78;2.90;;;25.40;99.90;;;;;;5011077;28;20025;-46
2023/08/15 08:31:33;;;;;;;5.00;2.90;;;25.40;99.90;;;;;;5010984;28;20037;-46
2023/08/15 08:33:59;;;;;;;7.03;3.03;;;25.30;99.90;;;;;;5010997;28;20397;-46
2023/08/15 08:36:24;;;;;;;5.40;2.53;;;25.50;99.90;;;;;;5010643;28;20686;-46
2023/08/15 08:38:50;;;;;;;3.88;2.28;;;25.50;99.90;;;;;;5011307;28;20030;-48
2023/08/15 08:41:16;;;;;;;5.35;2.70;;;25.40;99.90;;;;;;5010295;28;20404;-46
2023/08/15 08:43:42;;;;;;;4.50;2.80;;;25.40;99.90;;;;;;5010400;28;20084;-47
2023/08/15 08:46:08;;;;;;;3.35;2.55;;;26.00;99.90;;;;;;5010607;28;20473;-48
2023/08/15 08:48:34;;;;;;;6.70;2.70;;;27.10;99.90;;;;;;5010695;28;20501;-46
2023/08/15 08:51:00;;;;;;;4.38;2.70;;;28.30;99.90;;;;;;5010581;28;20038;-47
2023/08/15 08:53:26;;;;;;;3.13;2.63;;;28.50;99.90;;;;;;5010602;28;20022;-46
2023/08/15 08:55:52;;;;;;;3.35;2.28;;;28.20;99.90;;;;;;5010089;28;20103;-46
2023/08/15 08:58:18;;;;;;;5.28;2.30;;;28.20;99.90;;;;;;5010574;28;20030;-46
2023/08/15 09:00:45;;;;;;;2.40;1.75;;;28.40;99.90;;;;;;4992985;28;20030;-47
2023/08/15 09:03:10;;;;;;;4.15;2.38;;;28.90;99.90;;;;;;5010681;28;20081;-46
2023/08/15 09:05:36;;;;;;;4.82;2.35;;;29.80;99.90;;;;;;5010663;28;20014;-50
2023/08/15 09:08:03;;;;;;;4.28;2.50;;;30.20;99.90;;;;;;5010535;28;20381;-47
2023/08/15 09:10:29;;;;;;;2.05;1.90;;;30.40;99.90;;;;;;4992771;28;20455;-47
2023/08/15 09:12:59;;;;;;;4.40;1.98;;;30.80;99.90;;;;;;5010236;28;20026;-48
2023/08/15 09:15:25;;;;;;;3.33;2.00;;;31.40;99.90;;;;;;5009878;28;20105;-47
2023/08/15 09:18:00;;;;;;;5.72;2.30;;;31.60;99.90;;;;;;5010274;28;20104;-50
2023/08/15 09:20:26;;;;;;;5.45;2.10;;;32.10;97.00;;;;;;4992738;28;20026;-47
2023/08/15 09:22:58;;;;;;;2.35;1.90;;;33.00;96.60;;;;;;5010564;28;20085;-50
2023/08/15 09:25:27;;;;;;;4.90;2.17;;;33.60;96.10;;;;;;5010055;28;20054;-49
2023/08/15 09:27:53;;;;;;;1.70;1.60;;;34.60;94.00;;;;;;5010354;28;20544;-48
2023/08/15 09:30:19;;;;;;;2.78;1.70;;;35.00;92.50;;;;;;5010281;28;20026;-49
2023/08/15 09:32:46;;;;;;;2.47;1.70;;;35.70;91.30;;;;;;5010037;28;20034;-47
2023/08/15 09:35:13;;;;;;;1.83;1.40;;;35.40;90.10;;;;;;5009791;28;20054;-48
2023/08/15 09:37:43;;;;;;;1.88;1.60;;;35.30;88.50;;;;;;5010235;28;20014;-50
2023/08/15 09:40:11;;;;;;;2.08;1.42;;;35.40;89.20;;;;;;5010146;28;20018;-49
2023/08/15 09:42:36;;;;;;;3.40;1.60;;;36.00;86.90;;;;;;5010375;28;20015;-49
2023/08/15 09:45:03;;;;;;;2.33;1.48;;;36.20;85.30;;;;;;5009538;28;20340;-51
2023/08/15 09:47:29;;;;;;;2.28;1.30;;;36.30;82.10;;;;;;5010366;28;20033;-48
2023/08/15 09:49:55;;;;;;;2.13;1.50;;;36.00;83.80;;;;;;5010338;28;20026;-49
2023/08/15 09:52:22;;;;;;;1.65;1.30;;;36.20;85.30;;;;;;5010913;28;20112;-50
2023/08/15 09:54:48;;;;;;;2.22;1.70;;;35.70;84.60;;;;;;5013754;28;20083;-50
2023/08/15 09:57:14;;;;;;;1.20;1.10;;;35.90;82.60;;;;;;5014247;28;20420;-49
2023/08/15 09:59:39;;;;;;;2.63;1.60;;;35.20;83.20;;;;;;4996360;28;20037;-48
2023/08/15 10:02:16;;;;;;;4.38;1.40;;;34.70;85.00;;;;;;5014065;28;20018;-48
2023/08/15 10:04:42;;;;;;;2.30;1.67;;;35.00;85.50;;;;;;5013292;28;20024;-50
2023/08/15 10:07:08;;;;;;;6.07;1.63;;;35.50;82.20;;;;;;5013685;28;20022;-47
2023/08/15 10:09:34;;;;;;;3.33;1.58;;;35.20;83.30;;;;;;5013748;28;20080;-48
2023/08/15 10:12:00;;;;;;;1.80;1.52;;;34.70;82.20;;;;;;5013754;28;20108;-47
2023/08/15 10:14:26;;;;;;;2.95;1.60;;;33.20;86.30;;;;;;5012982;28;20061;-47
2023/08/15 10:16:53;;;;;;;1.92;1.52;;;34.20;88.20;;;;;;5013642;28;20029;-47
2023/08/15 10:19:18;;;;;;;2.40;1.73;;;34.90;86.10;;;;;;5013551;28;20018;-50
2023/08/15 10:21:49;;;;;;;3.08;1.60;;;35.60;85.60;;;;;;4995763;28;20036;-47
2023/08/15 10:24:15;;;;;;;2.17;1.80;;;36.00;84.40;;;;;;5013097;28;20033;-49
2023/08/15 10:26:42;;;;;;;2.88;1.70;;;36.40;81.50;;;;;;4995483;28;20026;-49
2023/08/15 10:29:07;;;;;;;1.83;1.45;;;36.80;80.20;;;;;;5013675;28;20021;-48
2023/08/15 10:31:38;;;;;;;2.83;1.42;;;37.40;79.20;;;;;;5013142;28;20026;-50
2023/08/15 10:34:07;;;;;;;2.15;1.40;;;38.00;77.40;;;;;;5013066;28;20460;-48
2023/08/15 10:36:32;;;;;;;1.60;1.20;;;37.80;76.70;;;;;;5013029;28;20449;-50
2023/08/15 10:39:06;;;;;;;4.22;1.70;;;37.70;76.50;;;;;;5013293;28;20049;-48
2023/08/15 10:41:36;;;;;;;3.55;1.23;;;36.70;76.80;;;;;;5013286;28;20029;-48
2023/08/15 10:44:07;;;;;;;3.10;1.52;;;37.30;76.10;;;;;;5013040;28;20409;-48
2023/08/15 10:46:34;;;;;;;1.67;1.02;;;37.50;77.30;;;;;;5012704;28;20022;-47
2023/08/15 10:49:07;;;;;;;2.08;1.27;;;38.00;76.00;;;;;;5012828;28;20021;-50
2023/08/15 10:51:35;;;;;;;2.28;1.08;;;38.10;73.30;;;;;;4995320;28;20515;-49
2023/08/15 10:54:05;;;;;;;1.23;1.10;;;38.50;73.10;;;;;;5012764;28;20033;-49
2023/08/15 10:56:33;;;;;;;1.33;1.00;;;39.40;69.80;;;;;;5012771;28;20037;-50
2023/08/15 10:59:04;;;;;;;1.60;1.00;;;39.10;69.60;;;;;;5012808;28;20022;-50
2023/08/15 11:01:30;;;;;;;2.45;0.90;;;38.50;72.50;;;;;;5012893;28;20034;-50
2023/08/15 11:03:57;;;;;;;1.33;1.00;;;38.80;68.00;;;;;;4993982;28;20022;-48
2023/08/15 11:06:23;;;;;;;0.80;0.77;;;38.50;71.30;;;;;;5012842;28;20030;-50
2023/08/15 11:08:51;;;;;;;2.47;0.90;;;38.30;71.90;;;;;;4995219;28;20465;-48
2023/08/15 11:11:17;;;;;;;1.23;1.00;;;38.30;72.60;;;;;;5012567;28;20054;-48
2023/08/15 11:13:47;;;;;;;2.13;1.00;;;38.40;71.20;;;;;;5012205;28;20531;-49
2023/08/15 11:16:21;;;;;;;1.20;1.10;;;37.40;73.10;;;;;;4994853;28;20026;-48
2023/08/15 11:18:48;;;;;;;0.93;0.90;;;37.20;75.00;;;;;;4994968;28;20523;-50
2023/08/15 11:21:15;;;;;;;1.15;0.98;;;37.80;72.60;;;;;;5012381;28;20022;-49
2023/08/15 11:23:41;;;;;;;1.58;0.93;;;38.30;72.00;;;;;;5012041;28;20104;-50
2023/08/15 11:26:12;;;;;;;1.50;0.93;;;37.80;68.90;;;;;;5011993;28;20644;-49
2023/08/15 11:28:38;;;;;;;1.40;0.98;;;38.30;71.80;;;;;;5012034;28;20029;-47
2023/08/15 11:31:11;;;;;;;1.38;0.90;;;38.10;70.70;;;;;;5011951;28;20034;-46
2023/08/15 11:33:37;;;;;;;1.48;0.85;;;36.70;69.70;;;;;;5011869;28;20080;-47
2023/08/15 11:36:06;;;;;;;1.35;1.10;;;37.20;70.60;;;;;;5011860;28;20022;-49
2023/08/15 11:38:33;;;;;;;1.10;0.80;;;37.00;69.10;;;;;;5012127;28;20503;-49
2023/08/15 11:41:01;;;;;;;1.33;0.90;;;37.00;71.30;;;;;;4994508;28;20283;-47
2023/08/15 11:43:27;;;;;;;3.60;1.08;;;37.10;75.20;;;;;;5012336;28;20053;-47
2023/08/15 11:45:53;;;;;;;1.02;0.90;;;37.60;69.70;;;;;;5011618;28;20025;-49
2023/08/15 11:48:19;;;;;;;1.52;1.10;;;37.40;70.70;;;;;;5011934;28;20048;-49
2023/08/15 11:50:45;;;;;;;1.88;1.05;;;36.30;72.40;;;;;;5011802;28;20392;-49
2023/08/15 11:53:13;;;;;;;1.33;1.15;;;36.20;72.10;;;;;;5011500;28;20049;-48
2023/08/15 11:55:40;;;;;;;2.43;1.30;;;36.40;73.10;;;;;;5011440;28;20108;-48
2023/08/15 11:58:22;;;;;;;2.85;1.50;;;36.70;70.60;;;;;;5011520;28;20307;-50
2023/08/15 12:00:47;;;;;;;1.00;0.90;;;36.90;68.60;;;;;;5011784;28;20045;-48
2023/08/15 12:03:13;;;;;;;2.83;1.08;;;36.80;70.50;;;;;;5011639;28;20054;-47
2023/08/15 12:05:43;;;;;;;2.08;1.10;;;36.20;69.70;;;;;;4993440;28;20030;-49
2023/08/15 12:08:09;;;;;;;1.42;1.10;;;36.40;69.10;;;;;;5011550;28;20033;-47
2023/08/15 12:10:34;;;;;;;3.42;1.50;;;36.20;68.50;;;;;;5011440;28;20030;-49
2023/08/15 12:13:02;;;;;;;1.42;1.33;;;36.20;72.60;;;;;;5011182;28;20172;-49
2023/08/15 12:15:27;;;;;;;2.40;1.27;;;36.00;73.40;;;;;;5010505;28;20060;-47
2023/08/15 12:17:53;;;;;;;1.40;1.08;;;35.80;73.40;;;;;;5010734;28;20093;-47
2023/08/15 12:20:18;;;;;;;1.55;1.33;;;35.70;71.00;;;;;;5011256;28;20018;-49
2023/08/15 12:22:44;;;;;;;1.55;1.27;;;35.50;72.30;;;;;;5011343;28;20323;-48
2023/08/15 12:25:09;;;;;;;1.30;1.20;;;35.10;73.50;;;;;;5010724;28;20111;-48
2023/08/15 12:27:36;;;;;;;1.30;1.20;;;34.90;72.60;;;;;;5011386;28;20052;-47
2023/08/15 12:30:03;;;;;;;2.05;1.40;;;34.90;77.00;;;;;;5011323;28;20030;-47
2023/08/15 12:32:29;;;;;;;1.85;1.52;;;34.70;76.20;;;;;;5010938;28;20045;-50
2023/08/15 12:34:55;;;;;;;1.85;1.60;;;34.70;78.00;;;;;;5010368;28;20477;-49
2023/08/15 12:37:20;;;;;;;3.83;1.90;;;34.60;75.90;;;;;;5011224;28;20026;-50
2023/08/15 12:39:46;;;;;;;2.33;1.48;;;34.50;75.90;;;;;;5010983;28;20072;-48
2023/08/15 12:42:15;;;;;;;3.55;1.40;;;34.40;72.50;;;;;;5010738;28;20036;-47